sensor_id;sensor_type;location;lat;lon;timestamp;P1;durP1;ratioP1;P2;durP2;ratioP2
28481;SDS011;15703;49.588;6.260;2022-07-06T00:02:15;3.23;;;1.90;;
28481;SDS011;15703;49.588;6.260;2022-07-06T00:04:37;2.03;;;1.70;;
28481;SDS011;15703;49.588;6.260;2022-07-06T00:06:59;3.50;;;2.10;;
28481;SDS011;15703;49.588;6.260;2022-07-06T00:09:22;2.10;;;1.67;;
28481;SDS011;15703;49.588;6.260;2022-07-06T00:11:44;2.13;;;1.70;;
28481;SDS011;15703;49.588;6.260;2022-07-06T00:14:07;1.90;;;1.60;;
28481;SDS011;15703;49.588;6.260;2022-07-06T00:16:30;5.37;;;1.70;;
28481;SDS011;15703;49.588;6.260;2022-07-06T00:18:53;4.37;;;1.70;;
28481;SDS011;15703;49.588;6.260;2022-07-06T00:21:15;3.37;;;1.80;;
28481;SDS011;15703;49.588;6.260;2022-07-06T00:23:37;6.10;;;2.17;;
28481;SDS011;15703;49.588;6.260;2022-07-06T00:26:00;3.20;;;1.93;;
28481;SDS011;15703;49.588;6.260;2022-07-06T00:28:22;3.27;;;2.20;;
28481;SDS011;15703;49.588;6.260;2022-07-06T00:30:45;2.73;;;1.80;;
28481;SDS011;15703;49.588;6.260;2022-07-06T00:33:08;1.80;;;1.70;;
28481;SDS011;15703;49.588;6.260;2022-07-06T00:35:30;4.93;;;2.00;;
28481;SDS011;15703;49.588;6.260;2022-07-06T00:37:53;1.67;;;1.57;;
28481;SDS011;15703;49.588;6.260;2022-07-06T00:40:15;3.93;;;1.90;;
28481;SDS011;15703;49.588;6.260;2022-07-06T00:42:45;3.10;;;1.87;;
28481;SDS011;15703;49.588;6.260;2022-07-06T00:45:08;3.73;;;1.93;;
28481;SDS011;15703;49.588;6.260;2022-07-06T00:47:30;2.10;;;1.90;;
28481;SDS011;15703;49.588;6.260;2022-07-06T00:49:53;3.53;;;2.27;;
28481;SDS011;15703;49.588;6.260;2022-07-06T00:52:35;3.33;;;2.00;;
28481;SDS011;15703;49.588;6.260;2022-07-06T00:54:58;2.90;;;1.80;;
28481;SDS011;15703;49.588;6.260;2022-07-06T00:57:23;1.87;;;1.77;;
28481;SDS011;15703;49.588;6.260;2022-07-06T00:59:45;2.60;;;1.83;;
28481;SDS011;15703;49.588;6.260;2022-07-06T01:02:08;2.97;;;2.23;;
28481;SDS011;15703;49.588;6.260;2022-07-06T01:04:30;3.80;;;2.33;;
28481;SDS011;15703;49.588;6.260;2022-07-06T01:06:52;2.67;;;1.90;;
28481;SDS011;15703;49.588;6.260;2022-07-06T01:09:16;4.80;;;2.00;;
28481;SDS011;15703;49.588;6.260;2022-07-06T01:11:38;2.33;;;2.13;;
28481;SDS011;15703;49.588;6.260;2022-07-06T01:14:01;4.27;;;2.60;;
28481;SDS011;15703;49.588;6.260;2022-07-06T01:16:23;5.73;;;2.13;;
28481;SDS011;15703;49.588;6.260;2022-07-06T01:18:46;3.37;;;1.83;;
28481;SDS011;15703;49.588;6.260;2022-07-06T01:21:12;5.23;;;1.90;;
28481;SDS011;15703;49.588;6.260;2022-07-06T01:23:45;2.20;;;2.00;;
28481;SDS011;15703;49.588;6.260;2022-07-06T01:26:09;3.50;;;2.13;;
28481;SDS011;15703;49.588;6.260;2022-07-06T01:28:34;2.77;;;1.90;;
28481;SDS011;15703;49.588;6.260;2022-07-06T01:30:56;2.07;;;1.90;;
28481;SDS011;15703;49.588;6.260;2022-07-06T01:33:19;7.27;;;2.00;;
28481;SDS011;15703;49.588;6.260;2022-07-06T01:35:41;2.50;;;2.30;;
28481;SDS011;15703;49.588;6.260;2022-07-06T01:38:03;2.20;;;2.00;;
28481;SDS011;15703;49.588;6.260;2022-07-06T01:40:28;4.60;;;2.20;;
28481;SDS011;15703;49.588;6.260;2022-07-06T01:42:51;2.23;;;2.00;;
28481;SDS011;15703;49.588;6.260;2022-07-06T01:45:13;2.23;;;2.03;;
28481;SDS011;15703;49.588;6.260;2022-07-06T01:47:36;4.33;;;2.20;;
28481;SDS011;15703;49.588;6.260;2022-07-06T01:49:59;3.87;;;2.20;;
28481;SDS011;15703;49.588;6.260;2022-07-06T01:52:25;3.63;;;2.00;;
28481;SDS011;15703;49.588;6.260;2022-07-06T01:54:47;2.83;;;2.37;;
28481;SDS011;15703;49.588;6.260;2022-07-06T01:57:09;2.90;;;1.80;;
28481;SDS011;15703;49.588;6.260;2022-07-06T01:59:32;4.37;;;2.80;;
28481;SDS011;15703;49.588;6.260;2022-07-06T02:01:55;4.20;;;2.10;;
28481;SDS011;15703;49.588;6.260;2022-07-06T02:04:17;2.33;;;1.77;;
28481;SDS011;15703;49.588;6.260;2022-07-06T02:06:40;3.13;;;2.17;;
28481;SDS011;15703;49.588;6.260;2022-07-06T02:09:02;2.40;;;2.13;;
28481;SDS011;15703;49.588;6.260;2022-07-06T02:11:27;4.10;;;2.40;;
28481;SDS011;15703;49.588;6.260;2022-07-06T02:13:49;4.10;;;2.30;;
28481;SDS011;15703;49.588;6.260;2022-07-06T02:16:11;3.23;;;2.23;;
28481;SDS011;15703;49.588;6.260;2022-07-06T02:18:35;2.70;;;2.50;;
28481;SDS011;15703;49.588;6.260;2022-07-06T02:20:58;2.67;;;2.40;;
28481;SDS011;15703;49.588;6.260;2022-07-06T02:23:20;2.50;;;2.30;;
28481;SDS011;15703;49.588;6.260;2022-07-06T02:25:45;4.17;;;2.93;;
28481;SDS011;15703;49.588;6.260;2022-07-06T02:28:08;2.93;;;2.57;;
28481;SDS011;15703;49.588;6.260;2022-07-06T02:30:31;2.40;;;2.20;;
28481;SDS011;15703;49.588;6.260;2022-07-06T02:32:54;3.87;;;2.63;;
28481;SDS011;15703;49.588;6.260;2022-07-06T02:35:17;3.40;;;2.47;;
28481;SDS011;15703;49.588;6.260;2022-07-06T02:37:39;2.87;;;2.60;;
28481;SDS011;15703;49.588;6.260;2022-07-06T02:40:02;3.10;;;2.60;;
28481;SDS011;15703;49.588;6.260;2022-07-06T02:42:26;4.77;;;2.37;;
28481;SDS011;15703;49.588;6.260;2022-07-06T02:44:49;4.17;;;2.50;;
28481;SDS011;15703;49.588;6.260;2022-07-06T02:47:11;3.30;;;2.40;;
28481;SDS011;15703;49.588;6.260;2022-07-06T02:49:34;3.67;;;2.73;;
28481;SDS011;15703;49.588;6.260;2022-07-06T02:51:56;3.57;;;2.33;;
28481;SDS011;15703;49.588;6.260;2022-07-06T02:54:19;4.60;;;2.80;;
28481;SDS011;15703;49.588;6.260;2022-07-06T02:56:41;6.03;;;3.00;;
28481;SDS011;15703;49.588;6.260;2022-07-06T02:59:04;2.73;;;2.30;;
28481;SDS011;15703;49.588;6.260;2022-07-06T03:01:34;2.53;;;2.30;;
28481;SDS011;15703;49.588;6.260;2022-07-06T03:03:56;2.57;;;2.30;;
28481;SDS011;15703;49.588;6.260;2022-07-06T03:06:19;3.23;;;2.87;;
28481;SDS011;15703;49.588;6.260;2022-07-06T03:08:41;5.27;;;2.80;;
28481;SDS011;15703;49.588;6.260;2022-07-06T03:11:04;4.40;;;2.60;;
28481;SDS011;15703;49.588;6.260;2022-07-06T03:13:27;4.00;;;2.73;;
28481;SDS011;15703;49.588;6.260;2022-07-06T03:15:50;3.93;;;2.60;;
28481;SDS011;15703;49.588;6.260;2022-07-06T03:18:12;3.37;;;2.50;;
28481;SDS011;15703;49.588;6.260;2022-07-06T03:20:35;4.50;;;2.80;;
28481;SDS011;15703;49.588;6.260;2022-07-06T03:22:59;4.30;;;2.70;;
28481;SDS011;15703;49.588;6.260;2022-07-06T03:25:21;2.97;;;2.63;;
28481;SDS011;15703;49.588;6.260;2022-07-06T03:27:44;5.07;;;2.80;;
28481;SDS011;15703;49.588;6.260;2022-07-06T03:30:09;5.13;;;2.60;;
28481;SDS011;15703;49.588;6.260;2022-07-06T03:32:39;5.07;;;2.80;;
28481;SDS011;15703;49.588;6.260;2022-07-06T03:35:02;4.63;;;2.67;;
28481;SDS011;15703;49.588;6.260;2022-07-06T03:37:26;4.93;;;3.00;;
28481;SDS011;15703;49.588;6.260;2022-07-06T03:39:48;5.00;;;2.27;;
28481;SDS011;15703;49.588;6.260;2022-07-06T03:42:11;2.67;;;2.30;;
28481;SDS011;15703;49.588;6.260;2022-07-06T03:44:34;4.10;;;2.60;;
28481;SDS011;15703;49.588;6.260;2022-07-06T03:46:57;5.30;;;2.70;;
28481;SDS011;15703;49.588;6.260;2022-07-06T03:49:21;4.70;;;2.77;;
28481;SDS011;15703;49.588;6.260;2022-07-06T03:51:43;3.50;;;2.57;;
28481;SDS011;15703;49.588;6.260;2022-07-06T03:54:06;3.67;;;2.67;;
28481;SDS011;15703;49.588;6.260;2022-07-06T03:56:28;5.97;;;2.50;;
28481;SDS011;15703;49.588;6.260;2022-07-06T03:59:02;3.30;;;2.40;;
28481;SDS011;15703;49.588;6.260;2022-07-06T04:01:28;3.50;;;2.43;;
28481;SDS011;15703;49.588;6.260;2022-07-06T04:03:52;4.30;;;2.50;;
28481;SDS011;15703;49.588;6.260;2022-07-06T04:06:15;3.60;;;2.97;;
28481;SDS011;15703;49.588;6.260;2022-07-06T04:08:38;3.50;;;2.93;;
28481;SDS011;15703;49.588;6.260;2022-07-06T04:11:00;3.53;;;2.57;;
28481;SDS011;15703;49.588;6.260;2022-07-06T04:13:23;4.27;;;2.97;;
28481;SDS011;15703;49.588;6.260;2022-07-06T04:15:46;5.33;;;3.07;;
28481;SDS011;15703;49.588;6.260;2022-07-06T04:18:09;3.67;;;2.60;;
28481;SDS011;15703;49.588;6.260;2022-07-06T04:20:38;3.77;;;2.87;;
28481;SDS011;15703;49.588;6.260;2022-07-06T04:23:01;2.37;;;2.17;;
28481;SDS011;15703;49.588;6.260;2022-07-06T04:25:24;4.53;;;2.20;;
28481;SDS011;15703;49.588;6.260;2022-07-06T04:27:49;2.47;;;1.90;;
28481;SDS011;15703;49.588;6.260;2022-07-06T04:30:12;3.67;;;1.70;;
28481;SDS011;15703;49.588;6.260;2022-07-06T04:32:36;2.58;;;1.60;;
28481;SDS011;15703;49.588;6.260;2022-07-06T04:34:59;1.80;;;1.08;;
28481;SDS011;15703;49.588;6.260;2022-07-06T04:37:22;1.90;;;1.30;;
28481;SDS011;15703;49.588;6.260;2022-07-06T04:39:44;3.00;;;1.40;;
28481;SDS011;15703;49.588;6.260;2022-07-06T04:42:07;3.88;;;1.27;;
28481;SDS011;15703;49.588;6.260;2022-07-06T04:44:29;2.38;;;1.17;;
28481;SDS011;15703;49.588;6.260;2022-07-06T04:46:52;0.73;;;0.63;;
28481;SDS011;15703;49.588;6.260;2022-07-06T04:49:15;2.17;;;0.80;;
28481;SDS011;15703;49.588;6.260;2022-07-06T04:51:38;1.38;;;1.05;;
28481;SDS011;15703;49.588;6.260;2022-07-06T04:54:01;2.20;;;1.25;;
28481;SDS011;15703;49.588;6.260;2022-07-06T04:56:27;3.00;;;1.08;;
28481;SDS011;15703;49.588;6.260;2022-07-06T04:58:50;2.58;;;0.93;;
28481;SDS011;15703;49.588;6.260;2022-07-06T05:01:15;4.97;;;1.40;;
28481;SDS011;15703;49.588;6.260;2022-07-06T05:03:37;2.17;;;1.38;;
28481;SDS011;15703;49.588;6.260;2022-07-06T05:06:04;2.03;;;1.13;;
28481;SDS011;15703;49.588;6.260;2022-07-06T05:08:27;2.55;;;1.20;;
28481;SDS011;15703;49.588;6.260;2022-07-06T05:10:49;2.95;;;1.30;;
28481;SDS011;15703;49.588;6.260;2022-07-06T05:13:13;3.05;;;1.50;;
28481;SDS011;15703;49.588;6.260;2022-07-06T05:15:36;3.17;;;1.60;;
28481;SDS011;15703;49.588;6.260;2022-07-06T05:17:59;3.92;;;1.63;;
28481;SDS011;15703;49.588;6.260;2022-07-06T05:20:22;5.97;;;1.80;;
28481;SDS011;15703;49.588;6.260;2022-07-06T05:22:45;2.33;;;1.27;;
28481;SDS011;15703;49.588;6.260;2022-07-06T05:25:11;2.45;;;1.50;;
28481;SDS011;15703;49.588;6.260;2022-07-06T05:27:34;3.58;;;1.52;;
28481;SDS011;15703;49.588;6.260;2022-07-06T05:29:56;5.38;;;1.63;;
28481;SDS011;15703;49.588;6.260;2022-07-06T05:32:19;2.22;;;1.60;;
28481;SDS011;15703;49.588;6.260;2022-07-06T05:34:42;2.97;;;1.33;;
28481;SDS011;15703;49.588;6.260;2022-07-06T05:37:05;2.35;;;1.33;;
28481;SDS011;15703;49.588;6.260;2022-07-06T05:39:28;3.50;;;1.40;;
28481;SDS011;15703;49.588;6.260;2022-07-06T05:41:51;3.75;;;1.30;;
28481;SDS011;15703;49.588;6.260;2022-07-06T05:44:14;4.18;;;1.45;;
28481;SDS011;15703;49.588;6.260;2022-07-06T05:46:36;3.05;;;1.33;;
28481;SDS011;15703;49.588;6.260;2022-07-06T05:49:00;3.67;;;1.30;;
28481;SDS011;15703;49.588;6.260;2022-07-06T05:51:40;3.80;;;1.40;;
28481;SDS011;15703;49.588;6.260;2022-07-06T05:54:03;3.75;;;1.20;;
28481;SDS011;15703;49.588;6.260;2022-07-06T05:56:26;2.47;;;1.30;;
28481;SDS011;15703;49.588;6.260;2022-07-06T05:58:48;3.83;;;1.08;;
28481;SDS011;15703;49.588;6.260;2022-07-06T06:01:10;2.47;;;1.20;;
28481;SDS011;15703;49.588;6.260;2022-07-06T06:03:36;1.83;;;1.00;;
28481;SDS011;15703;49.588;6.260;2022-07-06T06:06:00;4.07;;;1.40;;
28481;SDS011;15703;49.588;6.260;2022-07-06T06:08:23;3.45;;;1.27;;
28481;SDS011;15703;49.588;6.260;2022-07-06T06:10:46;1.58;;;0.82;;
28481;SDS011;15703;49.588;6.260;2022-07-06T06:13:12;2.13;;;0.77;;
28481;SDS011;15703;49.588;6.260;2022-07-06T06:15:35;2.92;;;1.33;;
28481;SDS011;15703;49.588;6.260;2022-07-06T06:17:58;4.35;;;1.05;;
28481;SDS011;15703;49.588;6.260;2022-07-06T06:20:21;4.03;;;1.10;;
28481;SDS011;15703;49.588;6.260;2022-07-06T06:25:12;2.30;;;1.10;;
28481;SDS011;15703;49.588;6.260;2022-07-06T06:27:34;3.13;;;1.00;;
28481;SDS011;15703;49.588;6.260;2022-07-06T06:29:57;2.08;;;0.95;;
28481;SDS011;15703;49.588;6.260;2022-07-06T06:32:19;2.80;;;1.30;;
28481;SDS011;15703;49.588;6.260;2022-07-06T06:34:41;4.78;;;1.27;;
28481;SDS011;15703;49.588;6.260;2022-07-06T06:37:04;2.70;;;1.13;;
28481;SDS011;15703;49.588;6.260;2022-07-06T06:39:26;2.97;;;1.25;;
28481;SDS011;15703;49.588;6.260;2022-07-06T06:41:48;2.67;;;1.10;;
28481;SDS011;15703;49.588;6.260;2022-07-06T06:44:11;0.85;;;0.68;;
28481;SDS011;15703;49.588;6.260;2022-07-06T06:46:34;2.10;;;0.85;;
28481;SDS011;15703;49.588;6.260;2022-07-06T06:48:57;4.22;;;1.27;;
28481;SDS011;15703;49.588;6.260;2022-07-06T06:51:19;1.95;;;1.13;;
28481;SDS011;15703;49.588;6.260;2022-07-06T06:53:42;2.88;;;0.90;;
28481;SDS011;15703;49.588;6.260;2022-07-06T06:56:04;2.95;;;1.02;;
28481;SDS011;15703;49.588;6.260;2022-07-06T06:58:26;1.17;;;0.85;;
28481;SDS011;15703;49.588;6.260;2022-07-06T07:01:09;2.17;;;0.93;;
28481;SDS011;15703;49.588;6.260;2022-07-06T07:03:31;4.28;;;0.90;;
28481;SDS011;15703;49.588;6.260;2022-07-06T07:05:53;2.25;;;1.25;;
28481;SDS011;15703;49.588;6.260;2022-07-06T07:08:16;3.83;;;1.42;;
28481;SDS011;15703;49.588;6.260;2022-07-06T07:10:38;3.40;;;1.10;;
28481;SDS011;15703;49.588;6.260;2022-07-06T07:13:00;2.88;;;1.05;;
28481;SDS011;15703;49.588;6.260;2022-07-06T07:15:22;2.70;;;1.15;;
28481;SDS011;15703;49.588;6.260;2022-07-06T07:17:45;2.53;;;1.10;;
28481;SDS011;15703;49.588;6.260;2022-07-06T07:20:08;2.75;;;0.82;;
28481;SDS011;15703;49.588;6.260;2022-07-06T07:22:30;2.42;;;0.80;;
28481;SDS011;15703;49.588;6.260;2022-07-06T07:24:52;2.47;;;0.93;;
28481;SDS011;15703;49.588;6.260;2022-07-06T07:27:15;2.20;;;1.10;;
28481;SDS011;15703;49.588;6.260;2022-07-06T07:29:37;2.55;;;1.52;;
28481;SDS011;15703;49.588;6.260;2022-07-06T07:31:59;2.50;;;1.20;;
28481;SDS011;15703;49.588;6.260;2022-07-06T07:34:22;1.83;;;0.80;;
28481;SDS011;15703;49.588;6.260;2022-07-06T07:36:44;2.13;;;1.10;;
28481;SDS011;15703;49.588;6.260;2022-07-06T07:39:06;2.08;;;0.82;;
28481;SDS011;15703;49.588;6.260;2022-07-06T07:41:35;1.95;;;1.00;;
28481;SDS011;15703;49.588;6.260;2022-07-06T07:43:57;1.23;;;0.77;;
28481;SDS011;15703;49.588;6.260;2022-07-06T07:46:20;2.50;;;0.80;;
28481;SDS011;15703;49.588;6.260;2022-07-06T07:48:42;2.75;;;0.90;;
28481;SDS011;15703;49.588;6.260;2022-07-06T07:51:05;2.17;;;1.05;;
28481;SDS011;15703;49.588;6.260;2022-07-06T07:53:28;2.90;;;0.93;;
28481;SDS011;15703;49.588;6.260;2022-07-06T07:55:50;2.35;;;0.60;;
28481;SDS011;15703;49.588;6.260;2022-07-06T07:58:12;2.20;;;0.80;;
28481;SDS011;15703;49.588;6.260;2022-07-06T08:00:35;1.25;;;0.80;;
28481;SDS011;15703;49.588;6.260;2022-07-06T08:02:57;2.53;;;0.90;;
28481;SDS011;15703;49.588;6.260;2022-07-06T08:05:20;1.70;;;1.08;;
28481;SDS011;15703;49.588;6.260;2022-07-06T08:07:42;2.28;;;0.88;;
28481;SDS011;15703;49.588;6.260;2022-07-06T08:10:05;1.83;;;0.88;;
28481;SDS011;15703;49.588;6.260;2022-07-06T08:12:27;3.20;;;1.15;;
28481;SDS011;15703;49.588;6.260;2022-07-06T08:14:49;8.70;;;1.02;;
28481;SDS011;15703;49.588;6.260;2022-07-06T08:17:12;3.78;;;1.17;;
28481;SDS011;15703;49.588;6.260;2022-07-06T08:19:34;1.63;;;0.70;;
28481;SDS011;15703;49.588;6.260;2022-07-06T08:21:57;1.80;;;0.75;;
28481;SDS011;15703;49.588;6.260;2022-07-06T08:24:19;1.65;;;0.77;;
28481;SDS011;15703;49.588;6.260;2022-07-06T08:26:41;2.15;;;0.65;;
28481;SDS011;15703;49.588;6.260;2022-07-06T08:29:04;17.63;;;2.03;;
28481;SDS011;15703;49.588;6.260;2022-07-06T08:31:26;10.23;;;1.20;;
28481;SDS011;15703;49.588;6.260;2022-07-06T08:34:09;1.88;;;1.13;;
28481;SDS011;15703;49.588;6.260;2022-07-06T08:36:31;1.05;;;0.70;;
28481;SDS011;15703;49.588;6.260;2022-07-06T08:38:53;10.45;;;1.20;;
28481;SDS011;15703;49.588;6.260;2022-07-06T08:41:16;15.85;;;1.40;;
28481;SDS011;15703;49.588;6.260;2022-07-06T08:43:45;4.28;;;0.73;;
28481;SDS011;15703;49.588;6.260;2022-07-06T08:46:08;1.40;;;0.50;;
28481;SDS011;15703;49.588;6.260;2022-07-06T08:48:31;1.70;;;0.60;;
28481;SDS011;15703;49.588;6.260;2022-07-06T08:50:55;2.78;;;1.00;;
28481;SDS011;15703;49.588;6.260;2022-07-06T08:53:18;2.92;;;0.70;;
28481;SDS011;15703;49.588;6.260;2022-07-06T08:55:40;1.33;;;0.82;;
28481;SDS011;15703;49.588;6.260;2022-07-06T08:58:03;3.65;;;0.90;;
28481;SDS011;15703;49.588;6.260;2022-07-06T09:00:26;3.30;;;0.80;;
28481;SDS011;15703;49.588;6.260;2022-07-06T09:02:48;2.95;;;0.75;;
28481;SDS011;15703;49.588;6.260;2022-07-06T09:05:13;3.90;;;0.80;;
28481;SDS011;15703;49.588;6.260;2022-07-06T09:07:36;1.15;;;0.75;;
28481;SDS011;15703;49.588;6.260;2022-07-06T09:10:19;3.53;;;0.68;;
28481;SDS011;15703;49.588;6.260;2022-07-06T09:12:46;1.30;;;0.88;;
28481;SDS011;15703;49.588;6.260;2022-07-06T09:15:09;1.52;;;0.70;;
28481;SDS011;15703;49.588;6.260;2022-07-06T09:17:37;0.88;;;0.80;;
28481;SDS011;15703;49.588;6.260;2022-07-06T09:20:07;1.52;;;0.90;;
28481;SDS011;15703;49.588;6.260;2022-07-06T09:22:31;1.95;;;0.80;;
28481;SDS011;15703;49.588;6.260;2022-07-06T09:25:00;3.08;;;1.08;;
28481;SDS011;15703;49.588;6.260;2022-07-06T09:27:23;2.20;;;0.75;;
28481;SDS011;15703;49.588;6.260;2022-07-06T09:29:46;3.22;;;0.80;;
28481;SDS011;15703;49.588;6.260;2022-07-06T09:32:08;2.03;;;0.90;;
28481;SDS011;15703;49.588;6.260;2022-07-06T09:34:44;2.75;;;1.10;;
28481;SDS011;15703;49.588;6.260;2022-07-06T09:37:06;10.48;;;1.52;;
28481;SDS011;15703;49.588;6.260;2022-07-06T09:39:29;1.23;;;0.70;;
28481;SDS011;15703;49.588;6.260;2022-07-06T09:41:56;14.43;;;2.08;;
28481;SDS011;15703;49.588;6.260;2022-07-06T09:44:20;1.65;;;0.55;;
28481;SDS011;15703;49.588;6.260;2022-07-06T09:46:45;2.58;;;0.90;;
28481;SDS011;15703;49.588;6.260;2022-07-06T09:49:08;7.38;;;1.45;;
28481;SDS011;15703;49.588;6.260;2022-07-06T09:51:31;4.80;;;1.00;;
28481;SDS011;15703;49.588;6.260;2022-07-06T09:53:57;2.50;;;0.70;;
28481;SDS011;15703;49.588;6.260;2022-07-06T09:56:34;3.33;;;0.75;;
28481;SDS011;15703;49.588;6.260;2022-07-06T09:58:59;2.13;;;0.93;;
28481;SDS011;15703;49.588;6.260;2022-07-06T10:01:25;1.75;;;0.65;;
28481;SDS011;15703;49.588;6.260;2022-07-06T10:03:48;3.40;;;0.77;;
28481;SDS011;15703;49.588;6.260;2022-07-06T10:06:13;2.22;;;0.80;;
28481;SDS011;15703;49.588;6.260;2022-07-06T10:08:38;2.17;;;0.63;;
28481;SDS011;15703;49.588;6.260;2022-07-06T10:11:01;2.05;;;0.65;;
28481;SDS011;15703;49.588;6.260;2022-07-06T10:13:29;2.33;;;0.95;;
28481;SDS011;15703;49.588;6.260;2022-07-06T10:15:53;2.53;;;0.60;;
28481;SDS011;15703;49.588;6.260;2022-07-06T10:18:16;1.05;;;0.70;;
28481;SDS011;15703;49.588;6.260;2022-07-06T10:20:39;2.15;;;0.70;;
28481;SDS011;15703;49.588;6.260;2022-07-06T10:23:04;1.50;;;0.55;;
28481;SDS011;15703;49.588;6.260;2022-07-06T10:25:27;2.17;;;0.52;;
28481;SDS011;15703;49.588;6.260;2022-07-06T10:27:51;3.00;;;0.95;;
28481;SDS011;15703;49.588;6.260;2022-07-06T10:30:22;3.05;;;0.55;;
28481;SDS011;15703;49.588;6.260;2022-07-06T10:32:48;4.03;;;0.80;;
28481;SDS011;15703;49.588;6.260;2022-07-06T10:35:14;1.75;;;0.77;;
28481;SDS011;15703;49.588;6.260;2022-07-06T10:37:38;2.55;;;0.63;;
28481;SDS011;15703;49.588;6.260;2022-07-06T10:40:13;1.40;;;0.65;;
28481;SDS011;15703;49.588;6.260;2022-07-06T10:42:58;3.47;;;0.77;;
28481;SDS011;15703;49.588;6.260;2022-07-06T10:50:35;1.50;;;0.50;;
28481;SDS011;15703;49.588;6.260;2022-07-06T10:52:59;1.20;;;0.43;;
28481;SDS011;15703;49.588;6.260;2022-07-06T10:55:28;3.38;;;0.60;;
28481;SDS011;15703;49.588;6.260;2022-07-06T10:57:57;1.50;;;0.85;;
28481;SDS011;15703;49.588;6.260;2022-07-06T11:00:19;4.55;;;0.70;;
28481;SDS011;15703;49.588;6.260;2022-07-06T11:02:42;1.80;;;0.60;;
28481;SDS011;15703;49.588;6.260;2022-07-06T11:05:05;2.70;;;0.80;;
28481;SDS011;15703;49.588;6.260;2022-07-06T11:07:35;1.55;;;0.77;;
28481;SDS011;15703;49.588;6.260;2022-07-06T11:10:11;0.93;;;0.47;;
28481;SDS011;15703;49.588;6.260;2022-07-06T11:12:49;0.75;;;0.50;;
28481;SDS011;15703;49.588;6.260;2022-07-06T11:18:10;2.25;;;0.40;;
28481;SDS011;15703;49.588;6.260;2022-07-06T11:20:36;4.35;;;0.73;;
28481;SDS011;15703;49.588;6.260;2022-07-06T11:22:59;1.60;;;0.60;;
28481;SDS011;15703;49.588;6.260;2022-07-06T11:25:27;1.75;;;0.60;;
28481;SDS011;15703;49.588;6.260;2022-07-06T11:27:53;1.77;;;0.50;;
28481;SDS011;15703;49.588;6.260;2022-07-06T11:30:18;2.83;;;0.68;;
28481;SDS011;15703;49.588;6.260;2022-07-06T11:32:42;2.42;;;0.88;;
28481;SDS011;15703;49.588;6.260;2022-07-06T11:35:05;4.00;;;0.73;;
28481;SDS011;15703;49.588;6.260;2022-07-06T11:37:27;1.38;;;0.50;;
28481;SDS011;15703;49.588;6.260;2022-07-06T11:39:54;2.47;;;0.70;;
28481;SDS011;15703;49.588;6.260;2022-07-06T11:42:18;4.55;;;0.85;;
28481;SDS011;15703;49.588;6.260;2022-07-06T11:44:44;1.40;;;0.40;;
28481;SDS011;15703;49.588;6.260;2022-07-06T11:47:07;2.88;;;0.73;;
28481;SDS011;15703;49.588;6.260;2022-07-06T11:49:32;1.95;;;0.52;;
28481;SDS011;15703;49.588;6.260;2022-07-06T11:51:56;1.23;;;0.60;;
28481;SDS011;15703;49.588;6.260;2022-07-06T11:54:20;1.98;;;0.77;;
28481;SDS011;15703;49.588;6.260;2022-07-06T11:59:37;2.00;;;0.40;;
28481;SDS011;15703;49.588;6.260;2022-07-06T12:02:06;2.47;;;0.70;;
28481;SDS011;15703;49.588;6.260;2022-07-06T12:04:29;2.13;;;0.60;;
28481;SDS011;15703;49.588;6.260;2022-07-06T12:06:52;1.63;;;0.60;;
28481;SDS011;15703;49.588;6.260;2022-07-06T12:09:15;5.47;;;0.70;;
28481;SDS011;15703;49.588;6.260;2022-07-06T12:11:39;1.80;;;0.73;;
28481;SDS011;15703;49.588;6.260;2022-07-06T12:14:03;16.77;;;2.50;;
28481;SDS011;15703;49.588;6.260;2022-07-06T12:16:39;2.85;;;0.50;;
28481;SDS011;15703;49.588;6.260;2022-07-06T12:19:04;0.93;;;0.57;;
28481;SDS011;15703;49.588;6.260;2022-07-06T12:21:28;3.55;;;0.82;;
28481;SDS011;15703;49.588;6.260;2022-07-06T12:23:59;2.60;;;0.75;;
28481;SDS011;15703;49.588;6.260;2022-07-06T12:26:23;1.30;;;0.70;;
28481;SDS011;15703;49.588;6.260;2022-07-06T12:29:05;2.13;;;0.88;;
28481;SDS011;15703;49.588;6.260;2022-07-06T12:31:38;7.70;;;1.25;;
28481;SDS011;15703;49.588;6.260;2022-07-06T12:34:01;1.33;;;0.50;;
28481;SDS011;15703;49.588;6.260;2022-07-06T12:36:24;1.90;;;0.55;;
28481;SDS011;15703;49.588;6.260;2022-07-06T12:38:47;3.10;;;0.55;;
28481;SDS011;15703;49.588;6.260;2022-07-06T12:41:10;1.17;;;0.35;;
28481;SDS011;15703;49.588;6.260;2022-07-06T12:43:43;1.10;;;0.45;;
28481;SDS011;15703;49.588;6.260;2022-07-06T12:48:53;4.65;;;0.70;;
28481;SDS011;15703;49.588;6.260;2022-07-06T12:51:16;4.43;;;0.60;;
28481;SDS011;15703;49.588;6.260;2022-07-06T12:53:50;2.97;;;0.60;;
28481;SDS011;15703;49.588;6.260;2022-07-06T12:56:16;1.50;;;0.50;;
28481;SDS011;15703;49.588;6.260;2022-07-06T12:58:39;2.92;;;0.70;;
28481;SDS011;15703;49.588;6.260;2022-07-06T13:01:02;1.83;;;0.70;;
28481;SDS011;15703;49.588;6.260;2022-07-06T13:03:39;6.45;;;0.88;;
28481;SDS011;15703;49.588;6.260;2022-07-06T13:06:02;1.85;;;0.60;;
28481;SDS011;15703;49.588;6.260;2022-07-06T13:08:27;3.25;;;0.60;;
28481;SDS011;15703;49.588;6.260;2022-07-06T13:10:50;1.35;;;0.55;;
28481;SDS011;15703;49.588;6.260;2022-07-06T13:13:12;2.90;;;0.77;;
28481;SDS011;15703;49.588;6.260;2022-07-06T13:15:41;3.53;;;0.88;;
28481;SDS011;15703;49.588;6.260;2022-07-06T13:18:04;7.32;;;0.73;;
28481;SDS011;15703;49.588;6.260;2022-07-06T13:20:33;11.40;;;1.20;;
28481;SDS011;15703;49.588;6.260;2022-07-06T13:22:59;4.43;;;0.70;;
28481;SDS011;15703;49.588;6.260;2022-07-06T13:25:35;2.80;;;0.82;;
28481;SDS011;15703;49.588;6.260;2022-07-06T13:27:58;3.00;;;0.70;;
28481;SDS011;15703;49.588;6.260;2022-07-06T13:30:20;1.63;;;0.60;;
28481;SDS011;15703;49.588;6.260;2022-07-06T13:32:43;3.40;;;0.80;;
28481;SDS011;15703;49.588;6.260;2022-07-06T13:35:13;1.80;;;0.80;;
28481;SDS011;15703;49.588;6.260;2022-07-06T13:37:35;1.95;;;0.88;;
28481;SDS011;15703;49.588;6.260;2022-07-06T13:39:59;1.00;;;0.60;;
28481;SDS011;15703;49.588;6.260;2022-07-06T13:42:21;2.47;;;0.80;;
28481;SDS011;15703;49.588;6.260;2022-07-06T13:44:44;1.63;;;0.63;;
28481;SDS011;15703;49.588;6.260;2022-07-06T13:47:10;1.17;;;0.50;;
28481;SDS011;15703;49.588;6.260;2022-07-06T13:49:52;2.05;;;0.73;;
28481;SDS011;15703;49.588;6.260;2022-07-06T13:52:21;1.48;;;0.70;;
28481;SDS011;15703;49.588;6.260;2022-07-06T13:54:46;2.03;;;0.65;;
28481;SDS011;15703;49.588;6.260;2022-07-06T13:57:11;2.10;;;0.88;;
28481;SDS011;15703;49.588;6.260;2022-07-06T13:59:34;1.50;;;0.80;;
28481;SDS011;15703;49.588;6.260;2022-07-06T14:02:05;1.30;;;0.63;;
28481;SDS011;15703;49.588;6.260;2022-07-06T14:04:31;2.63;;;0.75;;
28481;SDS011;15703;49.588;6.260;2022-07-06T14:06:53;2.63;;;0.85;;
28481;SDS011;15703;49.588;6.260;2022-07-06T14:09:22;2.50;;;0.70;;
28481;SDS011;15703;49.588;6.260;2022-07-06T14:11:45;2.15;;;0.70;;
28481;SDS011;15703;49.588;6.260;2022-07-06T14:14:14;1.88;;;0.63;;
28481;SDS011;15703;49.588;6.260;2022-07-06T14:16:37;1.27;;;0.68;;
28481;SDS011;15703;49.588;6.260;2022-07-06T14:19:06;1.00;;;0.50;;
28481;SDS011;15703;49.588;6.260;2022-07-06T14:21:32;1.65;;;0.70;;
28481;SDS011;15703;49.588;6.260;2022-07-06T14:23:54;2.00;;;0.60;;
28481;SDS011;15703;49.588;6.260;2022-07-06T14:26:17;5.10;;;0.82;;
28481;SDS011;15703;49.588;6.260;2022-07-06T14:28:41;3.17;;;0.60;;
28481;SDS011;15703;49.588;6.260;2022-07-06T14:31:04;1.15;;;0.57;;
28481;SDS011;15703;49.588;6.260;2022-07-06T14:33:27;3.40;;;0.70;;
28481;SDS011;15703;49.588;6.260;2022-07-06T14:36:05;2.65;;;0.75;;
28481;SDS011;15703;49.588;6.260;2022-07-06T14:38:31;1.55;;;0.68;;
28481;SDS011;15703;49.588;6.260;2022-07-06T14:40:55;2.35;;;0.70;;
28481;SDS011;15703;49.588;6.260;2022-07-06T14:43:18;1.85;;;0.77;;
28481;SDS011;15703;49.588;6.260;2022-07-06T14:45:42;3.47;;;0.60;;
28481;SDS011;15703;49.588;6.260;2022-07-06T14:48:08;2.55;;;0.80;;